sensor_id;sensor_type;location;lat;lon;timestamp;temperature;humidity
19224;DHT22;9746;47.180;9.776;2024-02-21T16:33:41;14.00;99.90
19224;DHT22;9746;47.180;9.776;2024-02-21T16:36:28;13.60;99.90
19224;DHT22;9746;47.180;9.776;2024-02-21T16:38:59;13.50;99.90
19224;DHT22;9746;47.180;9.776;2024-02-21T16:41:35;13.20;99.90
19224;DHT22;9746;47.180;9.776;2024-02-21T16:57:57;12.80;99.90
19224;DHT22;9746;47.180;9.776;2024-02-21T17:00:26;12.10;99.90
19224;DHT22;9746;47.180;9.776;2024-02-21T17:02:53;11.90;99.90
19224;DHT22;9746;47.180;9.776;2024-02-21T17:05:21;11.70;99.90
19224;DHT22;9746;47.180;9.776;2024-02-21T17:07:52;11.50;99.90
19224;DHT22;9746;47.180;9.776;2024-02-21T17:10:20;11.40;99.90
19224;DHT22;9746;47.180;9.776;2024-02-21T17:12:50;11.40;99.90
19224;DHT22;9746;47.180;9.776;2024-02-21T17:15:22;11.30;99.90
19224;DHT22;9746;47.180;9.776;2024-02-21T17:17:50;11.20;99.90
19224;DHT22;9746;47.180;9.776;2024-02-21T17:20:18;11.10;99.90
19224;DHT22;9746;47.180;9.776;2024-02-21T17:22:54;10.90;99.90
19224;DHT22;9746;47.180;9.776;2024-02-21T17:25:25;10.80;99.90
19224;DHT22;9746;47.180;9.776;2024-02-21T17:27:56;10.80;99.90
19224;DHT22;9746;47.180;9.776;2024-02-21T17:30:26;10.80;99.90
19224;DHT22;9746;47.180;9.776;2024-02-21T17:32:53;10.70;99.90
19224;DHT22;9746;47.180;9.776;2024-02-21T17:35:21;10.60;99.90
19224;DHT22;9746;47.180;9.776;2024-02-21T17:37:50;10.60;99.90
19224;DHT22;9746;47.180;9.776;2024-02-21T17:40:18;10.60;99.90
19224;DHT22;9746;47.180;9.776;2024-02-21T17:42:51;10.50;99.90
19224;DHT22;9746;47.180;9.776;2024-02-21T17:45:18;10.50;99.90
19224;DHT22;9746;47.180;9.776;2024-02-21T17:47:49;10.40;99.90
19224;DHT22;9746;47.180;9.776;2024-02-21T17:50:17;10.40;99.90
19224;DHT22;9746;47.180;9.776;2024-02-21T17:52:45;10.30;99.90
19224;DHT22;9746;47.180;9.776;2024-02-21T17:55:13;10.30;99.90
19224;DHT22;9746;47.180;9.776;2024-02-21T17:57:40;10.20;99.90
19224;DHT22;9746;47.180;9.776;2024-02-21T18:00:11;10.10;99.90
19224;DHT22;9746;47.180;9.776;2024-02-21T18:02:40;10.00;99.90
19224;DHT22;9746;47.180;9.776;2024-02-21T18:05:09;10.00;99.90
19224;DHT22;9746;47.180;9.776;2024-02-21T18:07:39;9.90;99.90
19224;DHT22;9746;47.180;9.776;2024-02-21T18:10:07;9.90;99.90
19224;DHT22;9746;47.180;9.776;2024-02-21T18:12:35;9.80;99.90
19224;DHT22;9746;47.180;9.776;2024-02-21T18:15:03;9.60;99.90
19224;DHT22;9746;47.180;9.776;2024-02-21T18:17:32;9.60;99.90
19224;DHT22;9746;47.180;9.776;2024-02-21T18:20:07;9.50;99.90
19224;DHT22;9746;47.180;9.776;2024-02-21T18:22:44;9.40;99.90
19224;DHT22;9746;47.180;9.776;2024-02-21T18:25:15;9.40;99.90
19224;DHT22;9746;47.180;9.776;2024-02-21T18:27:43;9.30;99.90
19224;DHT22;9746;47.180;9.776;2024-02-21T18:30:12;9.30;99.90
19224;DHT22;9746;47.180;9.776;2024-02-21T18:32:44;9.20;99.90
19224;DHT22;9746;47.180;9.776;2024-02-21T18:35:11;9.20;99.90
19224;DHT22;9746;47.180;9.776;2024-02-21T18:37:48;9.20;99.90
19224;DHT22;9746;47.180;9.776;2024-02-21T18:40:16;9.20;99.90
19224;DHT22;9746;47.180;9.776;2024-02-21T18:42:44;9.20;99.90
19224;DHT22;9746;47.180;9.776;2024-02-21T18:45:19;9.20;99.90
19224;DHT22;9746;47.180;9.776;2024-02-21T18:47:53;9.20;99.90
19224;DHT22;9746;47.180;9.776;2024-02-21T18:50:21;9.20;99.90
19224;DHT22;9746;47.180;9.776;2024-02-21T18:53:04;9.20;99.90
19224;DHT22;9746;47.180;9.776;2024-02-21T18:55:34;9.20;99.90
19224;DHT22;9746;47.180;9.776;2024-02-21T18:58:04;9.10;99.90
19224;DHT22;9746;47.180;9.776;2024-02-21T19:00:31;9.10;99.90
19224;DHT22;9746;47.180;9.776;2024-02-21T19:03:02;9.00;99.90
19224;DHT22;9746;47.180;9.776;2024-02-21T19:05:29;9.00;99.90
19224;DHT22;9746;47.180;9.776;2024-02-21T19:07:58;9.00;99.90
19224;DHT22;9746;47.180;9.776;2024-02-21T19:10:26;8.90;99.90
19224;DHT22;9746;47.180;9.776;2024-02-21T19:12:55;8.90;99.90
19224;DHT22;9746;47.180;9.776;2024-02-21T19:15:23;8.90;99.90
19224;DHT22;9746;47.180;9.776;2024-02-21T19:17:52;8.90;99.90
19224;DHT22;9746;47.180;9.776;2024-02-21T19:20:20;8.90;99.90
19224;DHT22;9746;47.180;9.776;2024-02-21T19:22:52;8.90;99.90
19224;DHT22;9746;47.180;9.776;2024-02-21T19:25:21;8.80;99.90
19224;DHT22;9746;47.180;9.776;2024-02-21T19:27:49;8.80;99.90
19224;DHT22;9746;47.180;9.776;2024-02-21T19:30:16;8.80;99.90
19224;DHT22;9746;47.180;9.776;2024-02-21T19:32:46;8.80;99.90
19224;DHT22;9746;47.180;9.776;2024-02-21T19:35:14;8.80;99.90
19224;DHT22;9746;47.180;9.776;2024-02-21T19:37:51;8.80;99.90
19224;DHT22;9746;47.180;9.776;2024-02-21T19:40:21;8.90;99.90
19224;DHT22;9746;47.180;9.776;2024-02-21T19:42:48;8.90;99.90
19224;DHT22;9746;47.180;9.776;2024-02-21T19:45:16;9.00;99.90
19224;DHT22;9746;47.180;9.776;2024-02-21T19:47:45;9.00;99.90
19224;DHT22;9746;47.180;9.776;2024-02-21T19:50:13;8.90;99.90
19224;DHT22;9746;47.180;9.776;2024-02-21T19:52:45;8.90;99.90
19224;DHT22;9746;47.180;9.776;2024-02-21T19:55:15;8.90;99.90
19224;DHT22;9746;47.180;9.776;2024-02-21T19:57:56;8.80;99.90
19224;DHT22;9746;47.180;9.776;2024-02-21T20:00:23;8.70;99.90
19224;DHT22;9746;47.180;9.776;2024-02-21T20:02:51;8.70;99.90
19224;DHT22;9746;47.180;9.776;2024-02-21T20:05:18;8.60;99.90
19224;DHT22;9746;47.180;9.776;2024-02-21T20:07:47;8.60;99.90
19224;DHT22;9746;47.180;9.776;2024-02-21T20:10:14;8.70;99.90
19224;DHT22;9746;47.180;9.776;2024-02-21T20:12:47;8.70;99.90
19224;DHT22;9746;47.180;9.776;2024-02-21T20:15:16;8.70;99.90
19224;DHT22;9746;47.180;9.776;2024-02-21T20:17:47;8.70;99.90
19224;DHT22;9746;47.180;9.776;2024-02-21T20:20:16;8.70;99.90
19224;DHT22;9746;47.180;9.776;2024-02-21T20:22:44;8.60;99.90
19224;DHT22;9746;47.180;9.776;2024-02-21T20:25:12;8.60;99.90
19224;DHT22;9746;47.180;9.776;2024-02-21T20:27:42;8.60;99.90
19224;DHT22;9746;47.180;9.776;2024-02-21T20:30:12;8.60;99.90
19224;DHT22;9746;47.180;9.776;2024-02-21T20:32:57;8.60;99.90
19224;DHT22;9746;47.180;9.776;2024-02-21T20:35:25;8.70;99.90
19224;DHT22;9746;47.180;9.776;2024-02-21T20:37:53;8.80;99.90
19224;DHT22;9746;47.180;9.776;2024-02-21T20:40:20;8.90;99.90
19224;DHT22;9746;47.180;9.776;2024-02-21T20:42:49;8.90;99.90
19224;DHT22;9746;47.180;9.776;2024-02-21T20:45:17;9.00;99.90
19224;DHT22;9746;47.180;9.776;2024-02-21T20:47:45;9.00;99.90
19224;DHT22;9746;47.180;9.776;2024-02-21T20:50:15;9.10;99.90
19224;DHT22;9746;47.180;9.776;2024-02-21T20:52:44;9.10;99.90
19224;DHT22;9746;47.180;9.776;2024-02-21T20:55:11;9.10;99.90
19224;DHT22;9746;47.180;9.776;2024-02-21T20:57:40;9.10;99.90
19224;DHT22;9746;47.180;9.776;2024-02-21T21:00:09;9.10;99.90
19224;DHT22;9746;47.180;9.776;2024-02-21T21:02:37;9.20;99.90
19224;DHT22;9746;47.180;9.776;2024-02-21T21:05:05;9.20;99.90
